createdAt,value
2023-03-29T00:01:57.495Z,1347.00
2023-03-29T00:02:57.535Z,1358.00
2023-03-29T00:03:58.774Z,1342.00
2023-03-29T00:05:57.417Z,1343.00
2023-03-29T00:06:57.418Z,1343.00
2023-03-29T00:09:57.393Z,1343.00
2023-03-29T00:10:57.395Z,1340.00
2023-03-29T00:11:57.387Z,1335.00
2023-03-29T00:14:57.378Z,1332.00
2023-03-29T00:15:57.402Z,1332.00
2023-03-29T00:19:57.337Z,1318.00
2023-03-29T00:21:57.337Z,1325.00
2023-03-29T00:22:57.323Z,1329.00
2023-03-29T00:23:57.338Z,1324.00
2023-03-29T00:24:57.314Z,1323.00
2023-03-29T00:25:57.328Z,1303.00
2023-03-29T00:26:57.320Z,1316.00
2023-03-29T00:27:57.318Z,1318.00
2023-03-29T00:28:57.308Z,1314.00
2023-03-29T00:29:57.319Z,1316.00
2023-03-29T00:31:57.377Z,1301.00
2023-03-29T00:32:57.439Z,1308.00
2023-03-29T00:33:57.302Z,1296.00
2023-03-29T00:35:57.357Z,1305.00
2023-03-29T00:37:57.327Z,1301.00
2023-03-29T00:38:57.305Z,1300.00
2023-03-29T00:42:57.290Z,1280.00
2023-03-29T00:44:57.283Z,1300.00
2023-03-29T00:45:57.279Z,1291.00
2023-03-29T00:47:57.559Z,1280.00
2023-03-29T00:49:57.281Z,1283.00
2023-03-29T00:53:57.239Z,1283.00
2023-03-29T00:54:57.211Z,1291.00
2023-03-29T00:57:57.213Z,1280.00
2023-03-29T00:58:57.281Z,1262.00
2023-03-29T00:59:57.207Z,1280.00
2023-03-29T01:00:57.214Z,1271.00
2023-03-29T01:04:57.196Z,1267.00
2023-03-29T01:06:57.270Z,1253.00
2023-03-29T01:07:57.180Z,1265.00
2023-03-29T01:09:57.169Z,1268.00
2023-03-29T01:10:57.166Z,1271.00
2023-03-29T01:12:57.138Z,1250.00
2023-03-29T01:13:57.158Z,1267.00
2023-03-29T01:15:57.173Z,1257.00
2023-03-29T01:18:57.121Z,1251.00
2023-03-29T01:19:57.108Z,1259.00
2023-03-29T01:21:57.065Z,1252.00
2023-03-29T01:24:57.058Z,1256.00
2023-03-29T01:25:57.060Z,1251.00
2023-03-29T01:26:57.057Z,1234.00
2023-03-29T01:30:57.002Z,1248.00
2023-03-29T01:31:57.036Z,1237.00
2023-03-29T01:34:56.953Z,1239.00
2023-03-29T01:35:56.966Z,1249.00
2023-03-29T01:39:56.882Z,1240.00
2023-03-29T01:40:56.851Z,1221.00
2023-03-29T01:41:56.870Z,1246.00
2023-03-29T01:46:56.784Z,1235.00
2023-03-29T01:48:56.745Z,1219.00
2023-03-29T01:49:56.758Z,1230.00
2023-03-29T01:51:56.729Z,1235.00
2023-03-29T01:52:56.725Z,1218.00
2023-03-29T01:55:56.681Z,1231.00
2023-03-29T01:56:57.481Z,1223.00
2023-03-29T01:57:56.674Z,1211.00
2023-03-29T02:00:56.649Z,1201.00
2023-03-29T02:01:56.817Z,1205.00
2023-03-29T02:02:56.682Z,1200.00
2023-03-29T02:06:56.556Z,1209.00
2023-03-29T02:08:56.552Z,1206.00
2023-03-29T02:10:56.543Z,1200.00
2023-03-29T02:11:56.534Z,1198.00
2023-03-29T02:13:56.496Z,1206.00
2023-03-29T02:17:56.978Z,1207.00
2023-03-29T02:19:56.456Z,1188.00
2023-03-29T02:20:56.451Z,1200.00
2023-03-29T02:21:56.492Z,1183.00
2023-03-29T02:25:56.381Z,1175.00
2023-03-29T02:27:56.396Z,1188.00
2023-03-29T02:28:56.357Z,1175.00
2023-03-29T02:29:56.384Z,1186.00
2023-03-29T02:33:56.330Z,1179.00
2023-03-29T02:36:56.324Z,1163.00
2023-03-29T02:37:56.338Z,1158.00
2023-03-29T02:38:56.307Z,1174.00
2023-03-29T02:39:56.311Z,1178.00
2023-03-29T02:41:56.310Z,1172.00
2023-03-29T02:42:56.304Z,1174.00
2023-03-29T02:43:56.305Z,1165.00
2023-03-29T02:44:56.309Z,1172.00
2023-03-29T02:47:56.406Z,1164.00
2023-03-29T02:50:56.304Z,1167.00
2023-03-29T02:51:56.292Z,1162.00
2023-03-29T02:52:56.327Z,1151.00
2023-03-29T02:56:56.375Z,1168.00
2023-03-29T02:57:56.330Z,1151.00
2023-03-29T02:58:56.328Z,1143.00
2023-03-29T02:59:56.335Z,1160.00
2023-03-29T03:00:56.369Z,1162.00
2023-03-29T03:01:56.425Z,1163.00
2023-03-29T03:02:56.475Z,1146.00
2023-03-29T03:03:56.483Z,1154.00
2023-03-29T03:07:56.425Z,1147.00
2023-03-29T03:08:56.469Z,1141.00
2023-03-29T03:14:56.464Z,1132.00
2023-03-29T03:15:56.496Z,1139.00
2023-03-29T03:17:56.506Z,1134.00
2023-03-29T03:18:56.475Z,1140.00
2023-03-29T03:20:56.482Z,1129.00
2023-03-29T03:21:56.506Z,1133.00
2023-03-29T03:23:56.517Z,1137.00
2023-03-29T03:24:56.515Z,1130.00
2023-03-29T03:25:56.529Z,1136.00
2023-03-29T03:26:56.527Z,1130.00
2023-03-29T03:27:56.546Z,1123.00
2023-03-29T03:28:56.565Z,1131.00
2023-03-29T03:29:56.562Z,1118.00
2023-03-29T03:30:56.578Z,1111.00
2023-03-29T03:31:56.613Z,1119.00
2023-03-29T03:33:56.606Z,1126.00
2023-03-29T03:34:56.652Z,1118.00
2023-03-29T03:35:56.653Z,1113.00
2023-03-29T03:36:56.629Z,1111.00
2023-03-29T03:37:56.638Z,1108.00
2023-03-29T03:38:56.645Z,1110.00
2023-03-29T03:39:56.665Z,1108.00
2023-03-29T03:40:56.674Z,1118.00
2023-03-29T03:41:56.678Z,1118.00
2023-03-29T03:44:56.695Z,1115.00
2023-03-29T03:45:56.773Z,1112.00
2023-03-29T03:47:56.747Z,1108.00
2023-03-29T03:48:56.933Z,1109.00
2023-03-29T03:49:56.748Z,1110.00
2023-03-29T03:50:56.782Z,1107.00
2023-03-29T03:51:56.760Z,1109.00
2023-03-29T03:52:56.766Z,1115.00
2023-03-29T03:53:56.797Z,1099.00
2023-03-29T03:54:56.794Z,1102.00
2023-03-29T03:55:56.820Z,1112.00
2023-03-29T04:01:56.903Z,1103.00
2023-03-29T04:02:56.934Z,1097.00
2023-03-29T04:03:56.914Z,1103.00
2023-03-29T04:04:56.882Z,1102.00
2023-03-29T04:05:56.883Z,1093.00
2023-03-29T04:06:56.889Z,1101.00
2023-03-29T04:07:56.883Z,1097.00
2023-03-29T04:08:56.909Z,1087.00
2023-03-29T04:09:56.928Z,1093.00
2023-03-29T04:10:56.947Z,1083.00
2023-03-29T04:11:56.941Z,1096.00
2023-03-29T04:12:56.937Z,1100.00
2023-03-29T04:13:56.965Z,1080.00
2023-03-29T04:16:56.989Z,1085.00
2023-03-29T04:17:57.070Z,1081.00
2023-03-29T04:18:57.048Z,1083.00
2023-03-29T04:19:57.015Z,1092.00
2023-03-29T04:20:57.035Z,1076.00
2023-03-29T04:21:57.055Z,1090.00
2023-03-29T04:22:57.050Z,1076.00
2023-03-29T04:23:57.049Z,1083.00
2023-03-29T04:24:57.084Z,1076.00
2023-03-29T04:25:57.086Z,1079.00
2023-03-29T04:26:57.090Z,1081.00
2023-03-29T04:27:57.097Z,1074.00
2023-03-29T04:28:57.131Z,1074.00
2023-03-29T04:29:57.126Z,1075.00
2023-03-29T04:30:57.210Z,1064.00
2023-03-29T04:31:57.164Z,1071.00
2023-03-29T04:32:57.185Z,1063.00
2023-03-29T04:33:59.775Z,1067.00
2023-03-29T04:36:57.215Z,1074.00
2023-03-29T04:37:57.245Z,1067.00
2023-03-29T04:38:57.257Z,1073.00
2023-03-29T04:39:57.254Z,1058.00
2023-03-29T04:40:57.287Z,1070.00
2023-03-29T04:41:57.289Z,1054.00
2023-03-29T04:44:57.323Z,1065.00
2023-03-29T04:47:57.395Z,1066.00
2023-03-29T04:48:57.344Z,1068.00
2023-03-29T04:49:57.441Z,1071.00
2023-03-29T04:51:57.338Z,1066.00
2023-03-29T04:54:57.363Z,1055.00
2023-03-29T04:55:57.377Z,1052.00
2023-03-29T04:56:57.425Z,1059.00
2023-03-29T04:57:57.382Z,1060.00
2023-03-29T05:00:57.377Z,1056.00
2023-03-29T05:02:57.413Z,1054.00
2023-03-29T05:06:57.383Z,988.00
2023-03-29T05:07:57.334Z,989.00
2023-03-29T05:09:57.324Z,1001.00
2023-03-29T05:10:57.301Z,997.00
2023-03-29T05:12:57.295Z,998.00
2023-03-29T05:14:57.280Z,982.00
2023-03-29T05:20:57.255Z,928.00
2023-03-29T05:21:57.256Z,921.00
2023-03-29T05:22:57.254Z,912.00
2023-03-29T05:23:57.262Z,902.00
2023-03-29T05:24:57.259Z,895.00
2023-03-29T05:25:57.263Z,884.00
2023-03-29T05:26:57.297Z,877.00
2023-03-29T05:27:57.265Z,877.00
2023-03-29T05:31:57.316Z,845.00
2023-03-29T05:34:57.242Z,889.00
2023-03-29T05:35:57.245Z,911.00
2023-03-29T05:37:57.319Z,974.00
2023-03-29T05:42:57.191Z,1116.00
2023-03-29T05:43:57.184Z,1160.00
2023-03-29T05:44:57.177Z,1176.00
2023-03-29T05:45:57.309Z,1209.00
2023-03-29T05:46:57.270Z,1181.00
2023-03-29T05:49:57.156Z,1232.00
2023-03-29T05:50:57.160Z,1255.00
2023-03-29T05:52:57.159Z,1276.00
2023-03-29T05:57:57.078Z,1430.00
2023-03-29T05:58:57.057Z,1487.00
2023-03-29T05:59:57.040Z,1527.00
2023-03-29T06:00:57.491Z,1558.00
2023-03-29T06:01:57.080Z,1575.00
2023-03-29T06:03:03.735Z,1624.00
2023-03-29T06:03:58.106Z,1624.00
2023-03-29T06:05:57.274Z,1647.00
2023-03-29T06:10:56.963Z,1810.00
2023-03-29T06:11:57.487Z,1818.00
2023-03-29T06:12:56.947Z,1831.00
2023-03-29T06:13:56.928Z,1838.00
2023-03-29T06:15:56.931Z,1814.00
2023-03-29T06:16:56.977Z,1785.00
2023-03-29T06:17:57.012Z,1795.00
2023-03-29T06:21:56.874Z,2049.00
2023-03-29T06:24:56.842Z,2116.00
2023-03-29T06:25:56.845Z,2119.00
2023-03-29T06:26:56.859Z,2127.00
2023-03-29T06:28:56.813Z,2116.00
2023-03-29T06:32:56.795Z,2116.00
2023-03-29T06:34:56.778Z,2128.00
2023-03-29T06:35:56.805Z,2109.00
2023-03-29T06:36:56.768Z,2105.00
2023-03-29T06:38:57.500Z,2080.00
2023-03-29T06:41:56.704Z,2036.00
2023-03-29T06:43:56.692Z,2067.00
2023-03-29T06:44:56.702Z,2036.00
2023-03-29T06:45:56.801Z,2037.00
2023-03-29T06:46:56.741Z,2023.00
2023-03-29T06:47:56.793Z,1986.00
2023-03-29T06:48:56.919Z,1981.00
2023-03-29T06:53:56.622Z,1852.00
2023-03-29T06:55:56.612Z,1840.00
2023-03-29T06:56:56.648Z,1846.00
2023-03-29T06:57:56.593Z,1816.00
2023-03-29T06:58:56.594Z,1821.00
2023-03-29T06:59:56.562Z,1843.00
2023-03-29T07:00:56.558Z,1842.00
2023-03-29T07:01:56.652Z,1814.00
2023-03-29T07:06:56.493Z,1799.00
2023-03-29T07:07:56.532Z,1766.00
2023-03-29T07:09:56.515Z,1687.00
2023-03-29T07:10:56.478Z,1672.00
2023-03-29T07:11:56.495Z,1623.00
2023-03-29T07:13:56.478Z,1568.00
2023-03-29T07:14:56.452Z,1526.00
2023-03-29T07:15:56.555Z,1479.00
2023-03-29T07:17:56.472Z,1455.00
2023-03-29T07:21:56.576Z,1341.00
2023-03-29T07:23:56.390Z,1303.00
2023-03-29T07:24:56.378Z,1264.00
2023-03-29T07:25:56.392Z,1201.00
2023-03-29T07:27:04.161Z,1181.00
2023-03-29T07:27:57.564Z,1190.00
2023-03-29T07:29:56.574Z,1045.00
2023-03-29T07:30:57.054Z,1064.00
2023-03-29T07:32:56.552Z,1039.00
2023-03-29T07:34:56.466Z,1031.00
2023-03-29T07:35:56.536Z,1032.00
2023-03-29T07:36:56.448Z,1044.00
2023-03-29T07:38:56.500Z,1122.00
2023-03-29T07:41:56.431Z,1191.00
2023-03-29T07:44:56.334Z,1250.00
2023-03-29T07:45:56.379Z,1300.00
2023-03-29T07:46:56.305Z,1217.00
2023-03-29T07:47:56.409Z,1218.00
2023-03-29T07:49:56.279Z,1252.00
2023-03-29T07:53:56.173Z,1208.00
2023-03-29T07:54:56.287Z,1228.00
2023-03-29T07:55:56.157Z,1257.00
2023-03-29T07:56:56.214Z,1265.00
2023-03-29T07:57:56.250Z,1304.00
2023-03-29T07:58:56.189Z,1291.00
2023-03-29T07:59:56.086Z,1251.00
2023-03-29T08:02:56.089Z,1295.00
2023-03-29T08:03:56.120Z,1290.00
2023-03-29T08:06:55.989Z,1224.00
2023-03-29T08:07:56.038Z,1242.00
2023-03-29T08:08:55.946Z,1216.00
2023-03-29T08:09:55.931Z,1173.00
2023-03-29T08:10:56.001Z,926.00
2023-03-29T08:16:55.980Z,471.00
2023-03-29T08:17:55.881Z,454.00
2023-03-29T08:18:55.832Z,404.00
2023-03-29T08:19:55.866Z,408.00
2023-03-29T08:20:55.886Z,425.00
2023-03-29T08:21:55.984Z,472.00
2023-03-29T08:25:56.618Z,503.00
2023-03-29T08:27:56.047Z,507.00
2023-03-29T08:28:55.793Z,509.00
2023-03-29T08:29:55.815Z,512.00
2023-03-29T08:30:55.946Z,542.00
2023-03-29T08:31:55.909Z,593.00
2023-03-29T08:36:55.981Z,400.00
2023-03-29T08:37:56.549Z,400.00
2023-03-29T08:38:55.896Z,400.00
2023-03-29T08:39:55.915Z,400.00
2023-03-29T08:40:55.960Z,400.00
2023-03-29T08:41:56.150Z,400.00
2023-03-29T08:42:56.086Z,400.00
2023-03-29T08:43:56.099Z,400.00
2023-03-29T08:44:56.341Z,400.00
2023-03-29T08:46:56.220Z,400.00
2023-03-29T08:47:56.493Z,574.00
2023-03-29T08:48:56.304Z,654.00
2023-03-29T08:49:56.308Z,805.00
2023-03-29T08:50:56.357Z,956.00
2023-03-29T08:51:56.379Z,1022.00
2023-03-29T08:52:56.396Z,1074.00
2023-03-29T08:53:56.409Z,1092.00
2023-03-29T08:54:56.458Z,1068.00
2023-03-29T08:55:56.483Z,1066.00
2023-03-29T08:56:56.474Z,1133.00
2023-03-29T08:57:56.623Z,1155.00
2023-03-29T08:59:56.535Z,1345.00
2023-03-29T09:00:56.662Z,1534.00
2023-03-29T09:04:56.530Z,1341.00
2023-03-29T09:05:56.572Z,1258.00
2023-03-29T09:06:56.645Z,1174.00
2023-03-29T09:07:56.585Z,1100.00
2023-03-29T09:09:56.659Z,1008.00
2023-03-29T09:11:56.683Z,873.00
2023-03-29T09:14:56.730Z,814.00
2023-03-29T09:18:56.731Z,743.00
2023-03-29T09:19:56.741Z,696.00
2023-03-29T09:22:56.782Z,631.00
2023-03-29T09:23:57.082Z,622.00
2023-03-29T09:24:57.581Z,629.00
2023-03-29T09:26:56.846Z,618.00
2023-03-29T09:27:56.887Z,617.00
2023-03-29T09:28:56.922Z,620.00
2023-03-29T09:30:56.915Z,628.00
2023-03-29T09:31:57.021Z,636.00
2023-03-29T09:32:57.005Z,616.00
2023-03-29T09:34:56.998Z,582.00
2023-03-29T09:35:57.057Z,584.00
2023-03-29T09:36:57.070Z,567.00
2023-03-29T09:37:57.048Z,566.00
2023-03-29T09:38:57.572Z,886.00
2023-03-29T09:42:57.146Z,2269.00
2023-03-29T09:43:57.197Z,2543.00
2023-03-29T09:44:57.137Z,2783.00
2023-03-29T09:45:57.234Z,2927.00
2023-03-29T09:46:57.178Z,3083.00
2023-03-29T09:49:57.183Z,3329.00
2023-03-29T09:50:57.216Z,3404.00
2023-03-29T09:51:58.977Z,3446.00
2023-03-29T09:52:57.186Z,3479.00
2023-03-29T09:53:57.189Z,3524.00
2023-03-29T09:54:57.406Z,3572.00
2023-03-29T09:56:57.222Z,3619.00
2023-03-29T09:57:57.176Z,3611.00
2023-03-29T09:58:57.201Z,3636.00
2023-03-29T09:59:57.297Z,3549.00
2023-03-29T10:02:57.328Z,3467.00
2023-03-29T10:03:57.201Z,3483.00
2023-03-29T10:04:57.187Z,3397.00
2023-03-29T10:05:57.194Z,3419.00
2023-03-29T10:09:57.255Z,3527.00
2023-03-29T10:12:57.174Z,3720.00
2023-03-29T10:13:57.166Z,3775.00
2023-03-29T10:14:57.205Z,3856.00
2023-03-29T10:15:57.278Z,3853.00
2023-03-29T10:16:57.546Z,3861.00
2023-03-29T10:18:57.131Z,3887.00
2023-03-29T10:22:57.148Z,3752.00
2023-03-29T10:23:57.111Z,3670.00
2023-03-29T10:24:57.215Z,3614.00
2023-03-29T10:25:57.115Z,3598.00
2023-03-29T10:26:57.141Z,3554.00
2023-03-29T10:27:57.130Z,3507.00
2023-03-29T10:28:57.154Z,3373.00
2023-03-29T10:29:57.124Z,2985.00
2023-03-29T10:30:57.127Z,2845.00
2023-03-29T10:33:57.100Z,2833.00
2023-03-29T10:34:57.090Z,2890.00
2023-03-29T10:35:57.338Z,3022.00
2023-03-29T10:36:57.330Z,3190.00
2023-03-29T10:37:57.375Z,3196.00
2023-03-29T10:38:57.102Z,3244.00
2023-03-29T10:39:57.600Z,3247.00
2023-03-29T10:41:57.128Z,3100.00
2023-03-29T10:43:57.099Z,3195.00
2023-03-29T10:48:57.053Z,2866.00
2023-03-29T10:49:57.399Z,2877.00
2023-03-29T10:51:57.044Z,2821.00
2023-03-29T10:52:57.015Z,2824.00
2023-03-29T10:53:57.022Z,2843.00
2023-03-29T10:58:57.035Z,3209.00
2023-03-29T10:59:57.075Z,3254.00
2023-03-29T11:00:56.983Z,3313.00
2023-03-29T11:01:56.992Z,3359.00
2023-03-29T11:03:57.066Z,3392.00
2023-03-29T11:04:57.049Z,3445.00
2023-03-29T11:05:56.936Z,3412.00
2023-03-29T11:07:56.927Z,3391.00
2023-03-29T11:08:57.633Z,3431.00
2023-03-29T11:13:25.859Z,500.00
2023-03-29T11:15:26.063Z,500.00
2023-03-29T11:16:25.836Z,500.00
2023-03-29T11:18:25.743Z,489.00
2023-03-29T11:19:25.712Z,497.00
2023-03-29T11:22:25.642Z,500.00
2023-03-29T11:24:25.584Z,502.00
2023-03-29T11:26:25.532Z,503.00
2023-03-29T11:28:25.540Z,606.00
2023-03-29T11:29:25.462Z,597.00
2023-03-29T11:31:25.479Z,637.00
2023-03-29T11:34:25.326Z,872.00
2023-03-29T11:35:25.651Z,876.00
2023-03-29T11:37:25.232Z,969.00
2023-03-29T11:38:25.198Z,1078.00
2023-03-29T11:41:25.128Z,1289.00
2023-03-29T11:43:25.063Z,1313.00
2023-03-29T11:44:25.042Z,1301.00
2023-03-29T11:47:25.023Z,1311.00
2023-03-29T11:50:24.879Z,1222.00
2023-03-29T11:52:24.852Z,1228.00
2023-03-29T11:53:25.022Z,1211.00
2023-03-29T11:54:24.993Z,1177.00
2023-03-29T12:00:24.578Z,1121.00
2023-03-29T12:01:24.696Z,1097.00
2023-03-29T12:02:24.605Z,1091.00
2023-03-29T12:04:24.698Z,1070.00
2023-03-29T12:05:24.444Z,1083.00
2023-03-29T12:06:24.423Z,1066.00
2023-03-29T12:11:24.323Z,1041.00
2023-03-29T12:12:24.439Z,970.00
2023-03-29T12:13:24.263Z,978.00
2023-03-29T12:14:26.727Z,961.00
2023-03-29T12:15:24.749Z,952.00
2023-03-29T12:18:24.239Z,931.00
2023-03-29T12:19:24.199Z,957.00
2023-03-29T12:20:24.074Z,936.00
2023-03-29T12:23:24.008Z,907.00
2023-03-29T12:24:24.008Z,917.00
2023-03-29T12:25:24.129Z,877.00
2023-03-29T12:26:23.983Z,872.00
2023-03-29T12:27:24.634Z,879.00
2023-03-29T12:30:23.966Z,896.00
2023-03-29T12:33:23.786Z,900.00
2023-03-29T12:35:23.754Z,889.00
2023-03-29T12:36:23.741Z,905.00
2023-03-29T12:37:23.713Z,882.00
2023-03-29T12:39:23.672Z,918.00
2023-03-29T12:43:55.981Z,500.00
2023-03-29T12:44:55.949Z,500.00
2023-03-29T12:45:56.091Z,500.00
2023-03-29T12:46:55.863Z,500.00
2023-03-29T12:47:55.863Z,500.00
2023-03-29T12:48:55.794Z,505.00
2023-03-29T12:49:55.726Z,509.00
2023-03-29T12:50:55.716Z,503.00
2023-03-29T12:51:55.660Z,508.00
2023-03-29T12:52:55.725Z,500.00
2023-03-29T12:53:55.599Z,503.00
2023-03-29T12:54:55.493Z,511.00
2023-03-29T12:55:55.425Z,520.00
2023-03-29T12:56:55.424Z,514.00
2023-03-29T12:57:55.382Z,512.00
2023-03-29T12:58:55.266Z,506.00
2023-03-29T12:59:55.192Z,516.00
2023-03-29T13:00:55.162Z,517.00
2023-03-29T13:01:55.198Z,509.00
2023-03-29T13:02:55.069Z,500.00
2023-03-29T13:03:55.030Z,511.00
2023-03-29T13:04:55.063Z,511.00
2023-03-29T13:05:54.856Z,515.00
2023-03-29T13:06:54.847Z,502.00
2023-03-29T13:07:54.762Z,509.00
2023-03-29T13:08:54.699Z,509.00
2023-03-29T13:09:54.697Z,486.00
2023-03-29T13:10:54.593Z,484.00
2023-03-29T13:11:54.529Z,504.00
2023-03-29T13:12:54.503Z,504.00
2023-03-29T13:13:54.534Z,500.00
2023-03-29T13:14:54.481Z,516.00
2023-03-29T13:15:54.384Z,538.00
2023-03-29T13:16:54.264Z,538.00
2023-03-29T13:17:54.318Z,541.00
2023-03-29T13:18:54.137Z,546.00
2023-03-29T13:19:54.061Z,555.00
2023-03-29T13:20:54.010Z,559.00
2023-03-29T13:21:53.976Z,564.00
2023-03-29T13:22:53.986Z,563.00
2023-03-29T13:23:53.834Z,549.00
2023-03-29T13:24:53.922Z,546.00
2023-03-29T13:25:53.868Z,531.00
2023-03-29T13:26:53.869Z,532.00
2023-03-29T13:27:53.916Z,524.00
2023-03-29T13:28:55.031Z,513.00
2023-03-29T13:29:53.872Z,512.00
2023-03-29T13:30:54.016Z,503.00
2023-03-29T13:31:53.740Z,511.00
2023-03-29T13:32:53.755Z,506.00
2023-03-29T13:33:54.084Z,508.00
2023-03-29T13:34:54.192Z,500.00
2023-03-29T13:35:53.586Z,506.00
2023-03-29T13:36:53.512Z,507.00
2023-03-29T13:37:53.445Z,500.00
2023-03-29T13:38:53.406Z,506.00
2023-03-29T13:39:54.099Z,506.00
2023-03-29T13:40:53.312Z,508.00
2023-03-29T13:41:53.258Z,514.00
2023-03-29T13:42:53.213Z,500.00
2023-03-29T13:43:53.125Z,507.00
2023-03-29T13:44:53.073Z,501.00
2023-03-29T13:45:53.118Z,502.00
2023-03-29T13:46:53.040Z,501.00
2023-03-29T13:48:04.603Z,501.00
2023-03-29T13:48:53.895Z,502.00
2023-03-29T13:49:52.784Z,497.00
2023-03-29T13:50:52.853Z,499.00
2023-03-29T13:51:52.721Z,499.00
2023-03-29T13:52:52.667Z,493.00
2023-03-29T13:53:52.613Z,505.00
2023-03-29T13:54:52.731Z,504.00
2023-03-29T13:55:52.542Z,500.00
2023-03-29T13:56:52.570Z,500.00
2023-03-29T13:57:53.367Z,498.00
2023-03-29T13:58:53.122Z,504.00
2023-03-29T13:59:52.549Z,507.00
2023-03-29T14:00:52.529Z,501.00
2023-03-29T14:01:52.449Z,491.00
2023-03-29T14:02:52.529Z,493.00
2023-03-29T14:03:52.347Z,499.00
2023-03-29T14:04:52.341Z,495.00
2023-03-29T14:05:52.277Z,503.00
2023-03-29T14:06:52.267Z,507.00
2023-03-29T14:07:52.195Z,500.00
2023-03-29T14:08:52.167Z,501.00
2023-03-29T14:09:52.197Z,500.00
2023-03-29T14:10:52.221Z,507.00
2023-03-29T14:11:52.235Z,506.00
2023-03-29T14:12:52.288Z,505.00
2023-03-29T14:13:52.272Z,517.00
2023-03-29T14:14:59.314Z,505.00
2023-03-29T14:15:52.314Z,493.00
2023-03-29T14:16:52.216Z,499.00
2023-03-29T14:17:52.191Z,505.00
2023-03-29T14:18:52.138Z,499.00
2023-03-29T14:19:52.086Z,504.00
2023-03-29T14:20:51.983Z,504.00
2023-03-29T14:21:52.034Z,512.00
2023-03-29T14:22:51.897Z,510.00
2023-03-29T14:23:51.886Z,498.00
2023-03-29T14:24:51.999Z,502.00
2023-03-29T14:25:51.926Z,512.00
2023-03-29T14:26:51.947Z,516.00
2023-03-29T14:27:51.961Z,515.00
2023-03-29T14:28:51.996Z,507.00
2023-03-29T14:29:51.959Z,501.00
2023-03-29T14:30:51.980Z,517.00
2023-03-29T14:31:52.027Z,514.00
2023-03-29T14:32:52.109Z,515.00
2023-03-29T14:33:52.072Z,512.00
2023-03-29T14:34:52.060Z,524.00
2023-03-29T14:35:52.167Z,540.00
2023-03-29T14:36:52.115Z,526.00
2023-03-29T14:37:52.104Z,522.00
2023-03-29T14:38:52.143Z,517.00
2023-03-29T14:39:52.096Z,524.00
2023-03-29T14:40:52.107Z,526.00
2023-03-29T14:41:52.173Z,514.00
2023-03-29T14:42:52.189Z,503.00
2023-03-29T14:43:52.158Z,506.00
2023-03-29T14:44:52.177Z,523.00
2023-03-29T14:45:52.199Z,517.00
2023-03-29T14:46:52.176Z,533.00
2023-03-29T14:47:52.223Z,534.00
2023-03-29T14:48:52.165Z,536.00
2023-03-29T14:49:52.127Z,545.00
2023-03-29T14:50:52.094Z,542.00
2023-03-29T14:51:52.099Z,515.00
2023-03-29T14:52:52.465Z,543.00
2023-03-29T14:53:52.123Z,548.00
2023-03-29T14:54:52.053Z,548.00
2023-03-29T14:55:52.060Z,549.00
2023-03-29T14:56:52.064Z,549.00
2023-03-29T14:57:52.021Z,556.00
2023-03-29T14:58:52.031Z,557.00
2023-03-29T14:59:52.001Z,558.00
2023-03-29T15:00:52.020Z,565.00
2023-03-29T15:01:52.025Z,565.00
2023-03-29T15:02:52.068Z,547.00
2023-03-29T15:03:54.122Z,554.00
2023-03-29T15:04:51.935Z,555.00
2023-03-29T15:05:51.878Z,561.00
2023-03-29T15:06:51.827Z,560.00
2023-03-29T15:07:51.786Z,566.00
2023-03-29T15:09:04.195Z,572.00
2023-03-29T15:09:52.696Z,572.00
2023-03-29T15:10:51.644Z,572.00
2023-03-29T15:11:51.611Z,576.00
2023-03-29T15:12:51.586Z,576.00
2023-03-29T15:13:51.537Z,576.00
2023-03-29T15:14:51.474Z,582.00
2023-03-29T15:15:51.453Z,585.00
2023-03-29T15:16:51.395Z,577.00
2023-03-29T15:17:52.560Z,585.00
2023-03-29T15:18:51.323Z,583.00
2023-03-29T15:19:51.245Z,588.00
2023-03-29T15:20:51.188Z,587.00
2023-03-29T15:21:51.134Z,592.00
2023-03-29T15:22:51.091Z,593.00
2023-03-29T15:23:51.047Z,594.00
2023-03-29T15:24:51.005Z,597.00
2023-03-29T15:25:50.947Z,594.00
2023-03-29T15:26:50.918Z,594.00
2023-03-29T15:27:50.882Z,582.00
2023-03-29T15:28:50.856Z,586.00
2023-03-29T15:29:50.825Z,596.00
2023-03-29T15:31:00.818Z,595.00
2023-03-29T15:31:51.766Z,595.00
2023-03-29T15:32:50.715Z,596.00
2023-03-29T15:33:50.633Z,598.00
2023-03-29T15:34:50.563Z,598.00
2023-03-29T15:35:50.582Z,602.00
2023-03-29T15:36:50.481Z,603.00
2023-03-29T15:37:50.416Z,603.00
2023-03-29T15:38:50.347Z,602.00
2023-03-29T15:39:50.313Z,600.00
2023-03-29T15:40:50.329Z,609.00
2023-03-29T15:41:50.194Z,610.00
2023-03-29T15:42:50.139Z,602.00
2023-03-29T15:43:50.084Z,604.00
2023-03-29T15:44:50.048Z,603.00
2023-03-29T15:45:50.015Z,601.00
2023-03-29T15:46:50.012Z,602.00
2023-03-29T15:47:49.940Z,608.00
2023-03-29T15:48:49.845Z,610.00
2023-03-29T15:49:49.783Z,613.00
2023-03-29T15:50:49.749Z,611.00
2023-03-29T15:51:49.685Z,609.00
2023-03-29T15:52:49.628Z,612.00
2023-03-29T15:53:49.587Z,613.00
2023-03-29T15:54:49.533Z,619.00
2023-03-29T15:55:49.488Z,621.00
2023-03-29T15:56:49.499Z,620.00
2023-03-29T15:57:49.435Z,620.00
2023-03-29T15:58:49.414Z,621.00
2023-03-29T15:59:49.305Z,628.00
2023-03-29T16:00:49.243Z,629.00
2023-03-29T16:01:49.236Z,634.00
2023-03-29T16:02:49.553Z,638.00
2023-03-29T16:03:49.045Z,636.00
2023-03-29T16:04:48.970Z,643.00
2023-03-29T16:05:48.922Z,640.00
2023-03-29T16:06:48.941Z,644.00
2023-03-29T16:07:48.821Z,644.00
2023-03-29T16:08:48.777Z,645.00
2023-03-29T16:09:48.735Z,652.00
2023-03-29T16:10:48.683Z,651.00
2023-03-29T16:11:48.631Z,650.00
2023-03-29T16:12:48.568Z,656.00
2023-03-29T16:13:48.566Z,657.00
2023-03-29T16:14:48.495Z,660.00
2023-03-29T16:15:48.437Z,659.00
2023-03-29T16:16:48.398Z,661.00
2023-03-29T16:17:48.354Z,662.00
2023-03-29T16:18:48.328Z,662.00
2023-03-29T16:19:48.231Z,665.00
2023-03-29T16:20:48.183Z,665.00
2023-03-29T16:21:48.165Z,678.00
2023-03-29T16:22:48.100Z,673.00
2023-03-29T16:23:48.047Z,675.00
2023-03-29T16:24:47.987Z,686.00
2023-03-29T16:25:47.950Z,668.00
2023-03-29T16:26:47.885Z,669.00
2023-03-29T16:27:47.838Z,681.00
2023-03-29T16:28:47.824Z,681.00
2023-03-29T16:29:47.754Z,684.00
2023-03-29T16:30:47.688Z,695.00
2023-03-29T16:31:47.666Z,686.00
2023-03-29T16:32:47.625Z,689.00
2023-03-29T16:33:47.533Z,695.00
2023-03-29T16:34:47.486Z,674.00
2023-03-29T16:35:47.527Z,696.00
2023-03-29T16:36:47.396Z,686.00
2023-03-29T16:37:47.334Z,672.00
2023-03-29T16:38:47.294Z,687.00
2023-03-29T16:39:47.257Z,694.00
2023-03-29T16:40:47.188Z,700.00
2023-03-29T16:41:47.146Z,694.00
2023-03-29T16:42:47.233Z,692.00
2023-03-29T16:43:47.039Z,701.00
2023-03-29T16:44:46.980Z,701.00
2023-03-29T16:45:46.966Z,685.00
2023-03-29T16:46:46.893Z,692.00
2023-03-29T16:47:46.851Z,696.00
2023-03-29T16:48:46.775Z,695.00
2023-03-29T16:49:46.746Z,707.00
2023-03-29T16:50:46.748Z,695.00
2023-03-29T16:51:46.657Z,697.00
2023-03-29T16:52:46.623Z,705.00
2023-03-29T16:53:46.631Z,705.00
2023-03-29T16:54:46.674Z,703.00
2023-03-29T16:55:46.502Z,707.00
2023-03-29T16:56:46.515Z,700.00
2023-03-29T16:57:46.436Z,693.00
2023-03-29T16:58:46.400Z,707.00
2023-03-29T16:59:46.417Z,694.00
2023-03-29T17:00:48.171Z,698.00
2023-03-29T17:01:46.419Z,699.00
2023-03-29T17:02:46.237Z,700.00
2023-03-29T17:03:46.160Z,698.00
2023-03-29T17:04:46.154Z,696.00
2023-03-29T17:05:46.044Z,695.00
2023-03-29T17:06:46.004Z,709.00
2023-03-29T17:07:46.186Z,707.00
2023-03-29T17:08:45.905Z,717.00
2023-03-29T17:09:45.848Z,712.00
2023-03-29T17:10:45.819Z,710.00
2023-03-29T17:11:45.761Z,698.00
2023-03-29T17:12:45.660Z,679.00
2023-03-29T17:13:45.605Z,693.00
2023-03-29T17:14:45.540Z,704.00
2023-03-29T17:15:45.550Z,697.00
2023-03-29T17:16:45.462Z,695.00
2023-03-29T17:17:45.400Z,696.00
2023-03-29T17:18:45.310Z,696.00
2023-03-29T17:19:45.275Z,692.00
2023-03-29T17:20:45.206Z,688.00